Flight Track Log - Related Links

Times and Time Zones

All times are in EDT time to prevent confusion due to time zone crossing. See the ASQ4492 flight status page for this flight to view local times or setup timezone preferences in your user account.

Time Position Orientation Groundspeed Altitude Reporting Facility
EDT Latitude Longitude Course Direction KTS MPH feet Rate Location/Type
Fri 07:35:57 PM 43.1283 -89.2231 67° East 241 277 5,100  Level Chicago Center
Fri 07:37:00 PM 43.1542 -89.1247 70° East 262 302 7,700 2,448 Climbing Chicago Center
Fri 07:38:02 PM 43.1550 -89.0158 89° East 286 329 10,200 2,032 Climbing Chicago Center
Fri 07:39:00 PM 43.1167 -88.3858 90° East  Level FlightAware Approximate
Fri 07:39:04 PM 43.1483 -88.8731 94° East 318 366 11,900  Level Chicago Center
Fri 07:40:00 PM 43.1000 -88.2335 90° East  Level FlightAware Approximate
Fri 07:40:06 PM 43.1406 -88.7356 94° East 359 413 13,400  Level Chicago Center
Fri 07:41:08 PM 43.1331 -88.5878 94° East 388 447 14,900 1,258 Climbing Chicago Center
Fri 07:42:10 PM 43.1244 -88.4322 94° East 413 475 16,000 1,113 Climbing Chicago Center
Fri 07:43:12 PM 43.1128 -88.2456 95° East 426 490 17,200 919 Climbing Chicago Center
Fri 07:44:14 PM 43.0953 -88.0806 98° East 436 502 17,900 823 Climbing Chicago Center
Fri 07:45:16 PM 43.0761 -87.9128 99° East 444 511 18,900 968 Climbing Chicago Center
Fri 07:46:18 PM 43.0575 -87.7411 98° East 454 522 19,900 968 Climbing Chicago Center
Fri 07:47:20 PM 43.0381 -87.5678 99° East 461 531 20,900 1,065 Climbing Chicago Center
Fri 07:48:22 PM 43.0147 -87.3639 99° East 465 535 22,100 1,210 Climbing Chicago Center
Fri 07:49:24 PM 42.9994 -87.2156 98° East 466 536 23,400 1,536 Climbing Chicago Center
Fri 07:50:27 PM 42.9767 -87.0150 99° East 450 518 25,300 1,392 Climbing Chicago Center
Fri 07:51:29 PM 42.9564 -86.8464 99° East 450 518 26,300 968 Climbing Chicago Center
Fri 07:52:31 PM 42.9358 -86.6761 99° East 456 525 27,300 968 Climbing Chicago Center
Fri 07:53:33 PM 42.9139 -86.5036 100° East 464 534 28,300 968 Climbing Chicago Center
Fri 07:54:35 PM 42.8928 -86.3325 100° East 463 533 29,300 1,065 Climbing Chicago Center
Fri 07:55:37 PM 42.8672 -86.1250 99° East 469 540 30,500 1,065 Climbing Chicago Center
Fri 07:56:39 PM 42.8447 -85.9508 100° East 476 548 31,500 968 Climbing Chicago Center
Fri 07:57:41 PM 42.8222 -85.7739 100° East 482 555 32,500 968 Climbing Chicago Center
Fri 07:58:43 PM 42.7997 -85.5928 100° East 488 562 33,500 968 Climbing Chicago Center
Fri 07:59:45 PM 42.7589 -85.4144 107° East 501 577 34,500 726 Climbing Chicago Center
Fri 08:00:47 PM 42.6864 -85.2108 116° Southeast 501 577 35,000 242 Climbing Chicago Center
Fri 08:01:49 PM 42.6236 -85.0339 116° Southeast 519 597 35,000  Level Chicago Center
Fri 08:02:51 PM 42.5614 -84.8581 116° Southeast 519 597 35,000  Level Chicago Center
Fri 08:03:53 PM 42.4994 -84.6844 116° Southeast 515 593 35,000  Level Chicago Center
Fri 08:04:54 PM 42.4367 -84.5119 116° Southeast 514 592 35,000  Level Chicago Center
Fri 08:05:56 PM 42.3744 -84.3386 116° Southeast 516 594 35,000  Level Chicago Center
Fri 08:06:58 PM 42.2981 -84.1278 116° Southeast 523 602 35,000  Level Chicago Center
Fri 08:08:03 PM 42.2256 -83.9397 117° Southeast 520 598 35,000  Level Cleveland Center
Fri 08:09:03 PM 42.1597 -83.7681 117° Southeast 520 598 35,000  Level Cleveland Center
Fri 08:10:03 PM 42.0975 -83.5944 116° Southeast 520 598 35,000  Level Cleveland Center
Fri 08:11:03 PM 42.0475 -83.4353 113° Southeast 520 598 35,000  Level Cleveland Center
Fri 08:12:03 PM 42.0294 -83.2361 97° East 503 579 35,000  Level Cleveland Center
Fri 08:13:03 PM 42.0144 -83.0564 96° East 490 564 35,000  Level Cleveland Center
Fri 08:14:03 PM 42.0036 -82.8883 95° East 484 557 35,000  Level Cleveland Center
Fri 08:15:03 PM 41.9903 -82.7092 96° East 484 557 35,000  Level Cleveland Center
Fri 08:16:03 PM 41.9747 -82.5242 96° East 484 557 35,000  Level Cleveland Center
Fri 08:17:03 PM 41.9589 -82.3422 97° East 484 557 35,000  Level Cleveland Center
Fri 08:18:03 PM 41.9428 -82.1603 97° East 484 557 35,000  Level Cleveland Center
Fri 08:19:03 PM 41.9267 -81.9564 96° East 489 563 35,000  Level Cleveland Center
Fri 08:20:03 PM 41.9119 -81.7886 97° East 496 571 35,000  Level Cleveland Center
Fri 08:21:03 PM 41.8950 -81.6042 97° East 501 577 35,000  Level Cleveland Center
Fri 08:22:03 PM 41.8797 -81.4169 96° East 501 577 35,000  Level Cleveland Center
Fri 08:23:03 PM 41.8622 -81.2328 97° East 501 577 35,000  Level Cleveland Center
Fri 08:24:03 PM 41.8425 -81.0319 97° East 501 577 35,000  Level Cleveland Center
Fri 08:25:03 PM 41.8264 -80.8478 97° East 496 571 35,000  Level Cleveland Center
Fri 08:26:03 PM 41.8078 -80.6667 98° East 496 571 35,000  Level Cleveland Center
Fri 08:27:03 PM 41.7889 -80.4772 98° East 503 579 35,000  Level Cleveland Center
Fri 08:28:03 PM 41.7719 -80.2936 97° East 504 580 35,000  Level Cleveland Center
Fri 08:29:03 PM 41.7528 -80.1100 98° East 499 574 35,000  Level Cleveland Center
Fri 08:30:03 PM 41.7350 -79.9292 97° East 499 574 35,000  Level Cleveland Center
Fri 08:31:03 PM 41.7153 -79.7597 99° East 504 580 35,000  Level Cleveland Center
Fri 08:32:03 PM 41.6972 -79.5792 98° East 498 573 35,000  Level Cleveland Center
Fri 08:33:03 PM 41.6767 -79.3961 98° East 498 573 35,000  Level Cleveland Center
Fri 08:34:03 PM 41.6556 -79.1936 98° East 503 579 35,000  Level Cleveland Center
Fri 08:35:03 PM 41.6369 -79.0300 99° East 503 579 35,000 -200 Level Cleveland Center
Fri 08:36:03 PM 41.6175 -78.8500 98° East 503 579 34,600 -550 Descending Cleveland Center
Fri 08:37:03 PM 41.5958 -78.6672 99° East 498 573 33,900 -755 Descending Cleveland Center
Fri 08:38:42 PM 41.5619 -78.3653 98° East 520 598 32,600 -755 Descending New York Center
Fri 08:39:42 PM 41.5400 -78.1825 99° East 515 593 31,900 -750 Descending New York Center
Fri 08:40:42 PM 41.5164 -77.9942 99° East 508 585 31,100 -446 Descending New York Center
Fri 08:41:43 PM 41.4900 -77.8086 101° East 508 585 31,000 -49 Descending New York Center
Fri 08:42:44 PM 41.4636 -77.6175 100° East 508 585 31,000 -50 Level New York Center
Fri 08:43:42 PM 41.4325 -77.4289 102° East 513 590 30,900 -1,000 Descending New York Center
Fri 08:44:44 PM 41.3894 -77.2281 106° East 508 585 29,000 -1,820 Descending New York Center
Fri 08:45:44 PM 41.3514 -77.0447 105° East 508 585 27,200 -1,897 Descending New York Center
Fri 08:46:41 PM 41.3133 -76.8589 105° East 513 590 25,300 -1,800 Descending New York Center
Fri 08:47:44 PM 41.2764 -76.6789 105° East 513 590 23,600 -1,686 Descending New York Center
Fri 08:48:42 PM 41.2375 -76.4989 106° East 508 585 21,900 -1,678 Descending New York Center
Fri 08:49:42 PM 41.2053 -76.3417 105° East 502 578 20,300 -1,613 Descending New York Center
Fri 08:50:41 PM 41.1694 -76.1706 105° East 486 559 18,700 -1,550 Descending New York Center
Fri 08:51:42 PM 41.1258 -75.9853 107° East 480 552 17,200 -1,377 Descending New York Center
Fri 08:52:43 PM 41.0806 -75.8247 110° East 475 547 15,900 -1,279 Descending New York Center
Fri 08:53:44 PM 41.0392 -75.6678 109° East 463 533 14,600 -1,388 Descending New York Center
Fri 08:54:44 PM 40.9989 -75.5328 112° Southeast 445 512 13,100 -958 Descending New York Center
Fri 08:55:43 PM 40.9553 -75.3758 110° East 421 484 12,700 -1,050 Descending New York Center
Fri 08:56:44 PM 40.9203 -75.2500 110° East 383 441 11,000 -1,714 Descending New York Center
Fri 08:57:42 PM 40.8931 -75.1494 110° East 336 387 9,300 -1,627 Descending New York Center
Fri 08:58:42 PM 40.8614 -75.0458 112° Southeast 311 358 7,800 -1,150 Descending New York Center
Fri 08:59:42 PM 40.8300 -74.9314 110° East 297 342 7,000 -397 Descending New York Center
Fri 09:00:43 PM 40.8233 -74.8267 95° East 297 342 7,000  Level New York Center
Fri 09:01:41 PM 40.8492 -74.7350 70° East 281 323 7,000 -205 Level New York Center
Fri 09:02:40 PM 40.8667 -74.6167 79° East 299 344 6,600 -531 Descending New York TRACON
Fri 09:03:34 PM 40.8167 -74.5500 135° Southeast 290 334 6,000 -476 Descending New York TRACON
Fri 09:04:46 PM 40.7333 -74.5000 156° South 276 318 5,600 -476 Descending New York TRACON
Fri 09:05:40 PM 40.6667 -74.4833 169° South 275 316 5,000 -316 Descending New York TRACON
Fri 09:06:40 PM 40.6000 -74.4500 159° South 235 270 5,000  Level New York TRACON
Fri 09:07:40 PM 40.5333 -74.4333 169° South 219 252 5,000  Level New York TRACON
Fri 09:08:40 PM 40.4833 -74.4000 153° Southeast 219 252 5,000 -446 Level New York TRACON
Fri 09:09:41 PM 40.4500 -74.3500 131° Southeast 219 252 4,100 -893 Descending New York TRACON
Fri 09:10:41 PM 40.4833 -74.3000 49° Northeast 185 213 3,200 -528 Descending New York TRACON
Fri 09:11:46 PM 40.5333 -74.2667 27° Northeast 150 173 3,000 -250 Descending New York TRACON
Fri 09:12:41 PM 40.5667 -74.2500 21° North 159 183 2,700 -632 Descending New York TRACON
Fri 09:13:40 PM 40.6000 -74.2167 37° Northeast 147 169 1,800 -915 Descending New York TRACON

Login

Don't have an account? Register now (free) for customized features, flight alerts, and more!